Time;durP1;ratioP1;P1;durP2;ratioP2;P2;SDS_P1;SDS_P2;PMS_P1;PMS_P2;Temp;Humidity;BMP_temperature;BMP_pressure;BME280_temperature;BME280_humidity;BME280_pressure;Samples;Min_cycle;Max_cycle;Signal;HPM_P1;HPM_P2
2021/06/08 00:00:58;;;;;;;12.90;11.60;;;15.30;99.90;;;;;;5073053;28;20490;-77
2021/06/08 00:03:24;;;;;;;13.60;11.20;;;15.40;99.90;;;;;;5073960;28;20207;-77
2021/06/08 00:05:50;;;;;;;11.73;10.53;;;15.30;99.90;;;;;;5077013;28;20215;-77
2021/06/08 00:08:16;;;;;;;11.17;10.00;;;15.30;99.90;;;;;;5075682;28;20955;-78
2021/06/08 00:10:41;;;;;;;13.30;11.30;;;15.30;99.90;;;;;;5076841;28;20596;-78
2021/06/08 00:13:07;;;;;;;11.10;10.00;;;15.40;99.90;;;;;;5076677;28;20200;-77
2021/06/08 00:15:33;;;;;;;11.00;10.10;;;15.50;99.90;;;;;;5077003;28;20173;-77
2021/06/08 00:17:58;;;;;;;10.90;10.00;;;15.50;99.90;;;;;;5076766;28;20501;-77
2021/06/08 00:20:25;;;;;;;11.33;10.27;;;15.60;99.90;;;;;;5077109;28;20411;-77
2021/06/08 00:22:50;;;;;;;11.83;9.60;;;15.60;99.90;;;;;;5076428;28;20261;-77
2021/06/08 00:25:16;;;;;;;12.23;11.00;;;15.60;99.90;;;;;;5076684;28;20966;-77
2021/06/08 00:27:42;;;;;;;11.10;10.10;;;15.60;99.90;;;;;;5076604;28;20177;-77
2021/06/08 00:30:08;;;;;;;11.50;10.50;;;15.60;99.90;;;;;;5075187;28;20192;-76
2021/06/08 00:32:34;;;;;;;14.27;11.10;;;15.70;99.90;;;;;;5076174;28;20470;-77
2021/06/08 00:35:00;;;;;;;11.97;10.87;;;15.60;99.90;;;;;;5076125;28;20423;-77
2021/06/08 00:37:25;;;;;;;11.70;9.60;;;15.50;99.90;;;;;;5076451;28;20218;-77
2021/06/08 00:39:52;;;;;;;11.53;10.43;;;15.40;99.90;;;;;;5075422;28;20699;-77
2021/06/08 00:42:29;;;;;;;11.77;10.57;;;15.40;99.90;;;;;;5076270;28;20180;-77
2021/06/08 00:44:55;;;;;;;12.70;10.50;;;15.50;99.90;;;;;;5075886;28;20455;-76
2021/06/08 00:47:20;;;;;;;13.17;10.60;;;15.60;99.90;;;;;;5076381;28;20442;-77
2021/06/08 00:49:46;;;;;;;11.77;10.67;;;15.60;99.90;;;;;;5076259;28;20633;-76
2021/06/08 00:52:12;;;;;;;12.10;11.00;;;15.60;99.90;;;;;;5076192;28;20702;-77
2021/06/08 00:54:38;;;;;;;11.70;10.60;;;15.60;99.90;;;;;;5075743;28;20211;-77
2021/06/08 00:57:04;;;;;;;12.80;10.60;;;15.60;99.90;;;;;;5076063;28;20414;-76
2021/06/08 00:59:30;;;;;;;11.37;10.27;;;15.60;99.90;;;;;;5075985;28;20444;-77
2021/06/08 01:01:56;;;;;;;12.50;11.23;;;15.70;99.90;;;;;;5074857;28;20900;-76
2021/06/08 01:04:21;;;;;;;11.40;10.40;;;15.60;99.90;;;;;;5075652;28;20246;-77
2021/06/08 01:06:48;;;;;;;12.30;11.13;;;15.60;99.90;;;;;;5075992;28;20189;-77
2021/06/08 01:09:14;;;;;;;12.47;11.27;;;15.60;99.90;;;;;;5075854;28;20579;-77
2021/06/08 01:11:39;;;;;;;13.37;12.07;;;15.60;99.90;;;;;;5075811;28;20533;-78
2021/06/08 01:14:05;;;;;;;12.93;11.77;;;15.70;99.90;;;;;;5075339;28;20193;-77
2021/06/08 01:16:32;;;;;;;12.43;10.80;;;15.70;99.90;;;;;;5074838;28;20187;-78
2021/06/08 01:18:58;;;;;;;13.60;12.20;;;15.80;99.90;;;;;;5075734;28;20169;-77
2021/06/08 01:21:24;;;;;;;11.67;10.57;;;15.70;99.90;;;;;;5075575;28;20394;-76
2021/06/08 01:23:50;;;;;;;12.10;11.00;;;15.70;99.90;;;;;;5073937;28;20504;-78
2021/06/08 01:26:17;;;;;;;14.20;12.90;;;15.70;99.90;;;;;;5074249;28;20426;-77
2021/06/08 01:28:45;;;;;;;14.77;13.17;;;15.80;99.90;;;;;;5075361;28;20426;-77
2021/06/08 01:31:14;;;;;;;14.07;12.57;;;15.80;99.90;;;;;;5075487;28;20433;-76
2021/06/08 01:33:43;;;;;;;13.47;12.27;;;15.80;99.90;;;;;;5074980;28;20647;-77
2021/06/08 01:36:12;;;;;;;16.33;13.10;;;15.60;99.90;;;;;;5075324;28;20415;-76
2021/06/08 01:38:39;;;;;;;13.83;12.43;;;15.60;99.90;;;;;;5075228;28;20779;-77
2021/06/08 01:41:05;;;;;;;15.03;13.07;;;15.70;99.90;;;;;;5075194;28;20435;-77
2021/06/08 01:43:31;;;;;;;13.80;12.50;;;15.60;99.90;;;;;;5074894;28;20935;-76
2021/06/08 01:45:57;;;;;;;15.20;13.60;;;15.60;99.90;;;;;;5057171;28;20502;-78
2021/06/08 01:48:24;;;;;;;12.87;11.67;;;15.70;99.90;;;;;;5073956;28;20423;-77
2021/06/08 01:50:50;;;;;;;11.50;10.40;;;15.50;99.90;;;;;;5074967;28;20458;-78
2021/06/08 01:53:27;;;;;;;12.03;10.93;;;15.50;99.90;;;;;;5074622;28;20397;-76
2021/06/08 01:56:00;;;;;;;10.90;9.80;;;15.50;99.90;;;;;;5075258;28;20403;-76
2021/06/08 01:58:59;;;;;;;11.77;10.60;;;15.60;99.90;;;;;;5075145;28;20505;-78
2021/06/08 02:01:39;;;;;;;12.80;11.63;;;15.70;99.90;;;;;;5075219;28;20407;-77
2021/06/08 02:04:23;;;;;;;14.80;12.43;;;15.70;99.90;;;;;;5074522;28;20430;-77
2021/06/08 02:06:59;;;;;;;13.13;11.93;;;15.70;99.90;;;;;;5074773;28;20386;-77
2021/06/08 02:09:46;;;;;;;11.40;10.30;;;15.60;99.90;;;;;;5074775;28;20919;-77
2021/06/08 02:12:17;;;;;;;14.83;12.87;;;15.50;99.90;;;;;;5074675;28;20454;-77
2021/06/08 02:15:05;;;;;;;13.50;12.20;;;15.60;99.90;;;;;;5074185;28;20427;-78
2021/06/08 02:17:59;;;;;;;13.20;11.90;;;15.60;99.90;;;;;;5070970;28;20431;-77
2021/06/08 02:20:31;;;;;;;12.80;11.70;;;15.60;99.90;;;;;;5073127;28;20522;-78
2021/06/08 02:23:02;;;;;;;15.03;13.13;;;15.60;99.90;;;;;;5074054;28;20394;-77
2021/06/08 02:25:31;;;;;;;13.37;12.07;;;15.70;99.90;;;;;;5074219;28;20435;-78
2021/06/08 02:27:59;;;;;;;14.27;12.33;;;15.70;99.90;;;;;;5074333;28;20418;-77
2021/06/08 02:30:27;;;;;;;13.67;12.37;;;15.80;99.90;;;;;;5074143;28;20484;-77
2021/06/08 02:32:54;;;;;;;14.93;13.30;;;15.60;99.90;;;;;;5073958;28;20420;-77
2021/06/08 02:35:22;;;;;;;14.17;12.73;;;15.50;99.90;;;;;;5073959;28;20443;-76
2021/06/08 02:37:50;;;;;;;13.70;12.07;;;15.50;99.90;;;;;;5074130;28;20423;-77
2021/06/08 02:40:16;;;;;;;12.83;11.53;;;15.50;99.90;;;;;;5074308;28;20879;-77
2021/06/08 02:42:42;;;;;;;14.50;11.93;;;15.60;99.90;;;;;;5072756;28;20426;-76
2021/06/08 02:45:08;;;;;;;12.97;11.67;;;15.70;99.90;;;;;;5073830;28;20435;-77
2021/06/08 02:47:35;;;;;;;13.27;11.97;;;15.60;99.90;;;;;;5072657;28;21050;-76
2021/06/08 02:50:03;;;;;;;13.20;11.90;;;15.60;99.90;;;;;;5072852;28;20426;-78
2021/06/08 02:52:30;;;;;;;14.30;12.10;;;15.70;99.90;;;;;;5073964;28;20446;-77
2021/06/08 02:54:59;;;;;;;14.53;13.30;;;15.70;99.90;;;;;;5073452;28;20431;-76
2021/06/08 02:57:25;;;;;;;17.70;12.47;;;15.70;99.90;;;;;;5073705;28;20393;-77
2021/06/08 02:59:53;;;;;;;14.77;13.47;;;15.60;99.90;;;;;;5073810;28;20411;-77
2021/06/08 03:02:21;;;;;;;13.63;12.33;;;15.70;99.90;;;;;;5073752;28;20431;-77
2021/06/08 03:05:05;;;;;;;14.57;13.07;;;15.70;99.90;;;;;;5073266;28;20417;-77
2021/06/08 03:07:36;;;;;;;14.40;13.03;;;15.60;99.90;;;;;;5073710;28;20430;-76
2021/06/08 03:10:06;;;;;;;17.10;15.37;;;15.50;99.90;;;;;;5073627;28;20927;-77
2021/06/08 03:12:42;;;;;;;14.13;12.70;;;15.50;99.90;;;;;;5073804;28;20454;-77
2021/06/08 03:15:09;;;;;;;17.13;15.40;;;15.50;99.90;;;;;;5073509;28;20441;-77
2021/06/08 03:17:37;;;;;;;19.13;17.00;;;15.50;99.90;;;;;;5073384;28;20403;-77
2021/06/08 03:20:12;;;;;;;18.97;17.07;;;15.50;99.90;;;;;;5073647;28;20446;-77
2021/06/08 03:22:43;;;;;;;25.20;17.10;;;15.60;99.90;;;;;;5073444;28;20442;-77
2021/06/08 03:25:11;;;;;;;17.50;13.60;;;15.60;99.90;;;;;;5073388;28;20443;-77
2021/06/08 03:27:37;;;;;;;18.50;16.50;;;15.70;99.90;;;;;;5071985;28;20477;-77
2021/06/08 03:30:04;;;;;;;17.50;15.70;;;15.60;99.90;;;;;;5071971;28;20438;-76
2021/06/08 03:32:30;;;;;;;19.57;17.60;;;15.60;99.90;;;;;;5073251;28;20470;-76
2021/06/08 03:34:57;;;;;;;17.40;15.70;;;15.60;99.90;;;;;;5072783;28;20438;-78
2021/06/08 03:37:24;;;;;;;16.20;14.70;;;15.60;99.90;;;;;;5073267;28;20419;-77
2021/06/08 03:39:51;;;;;;;18.07;16.17;;;15.40;99.90;;;;;;5072939;28;20425;-77
2021/06/08 03:42:17;;;;;;;22.10;19.43;;;15.40;99.90;;;;;;5073227;28;20443;-77
2021/06/08 03:44:43;;;;;;;24.47;19.10;;;15.40;99.90;;;;;;5072656;28;20466;-77
2021/06/08 03:47:09;;;;;;;23.37;20.53;;;15.40;99.90;;;;;;5073332;28;20181;-77
2021/06/08 03:49:35;;;;;;;22.77;17.20;;;15.50;99.90;;;;;;5071867;28;20431;-78
2021/06/08 03:52:01;;;;;;;23.20;20.80;;;15.50;99.90;;;;;;5072978;28;20447;-78
2021/06/08 03:54:27;;;;;;;25.40;19.97;;;15.50;99.90;;;;;;5072820;28;20803;-78
2021/06/08 03:56:56;;;;;;;24.97;22.33;;;15.40;99.90;;;;;;5071812;28;20419;-78
2021/06/08 03:59:27;;;;;;;22.13;19.50;;;15.40;99.90;;;;;;5073139;28;20540;-78
2021/06/08 04:01:53;;;;;;;24.87;22.07;;;15.40;99.90;;;;;;5073168;28;20423;-78
2021/06/08 04:04:20;;;;;;;19.47;17.37;;;15.30;99.90;;;;;;5072909;28;20439;-76
2021/06/08 04:06:46;;;;;;;25.13;21.73;;;15.30;99.90;;;;;;5073008;28;20414;-78
2021/06/08 04:09:12;;;;;;;28.77;22.03;;;15.40;99.90;;;;;;5073050;28;20415;-78
2021/06/08 04:11:41;;;;;;;26.43;21.60;;;15.30;99.90;;;;;;5072767;28;21038;-77
2021/06/08 04:14:09;;;;;;;27.13;23.27;;;15.30;99.90;;;;;;5072449;28;20192;-78
2021/06/08 04:16:35;;;;;;;27.53;22.80;;;15.30;99.90;;;;;;5072819;28;20407;-77
2021/06/08 04:19:01;;;;;;;26.10;23.00;;;15.30;99.90;;;;;;5072795;28;20407;-78
2021/06/08 04:21:28;;;;;;;30.23;22.97;;;15.30;99.90;;;;;;5071496;28;20429;-77
2021/06/08 04:24:00;;;;;;;27.07;23.97;;;15.40;99.90;;;;;;5072396;28;20441;-78
2021/06/08 04:26:27;;;;;;;29.93;24.40;;;15.30;99.90;;;;;;5071528;28;20454;-78
2021/06/08 04:28:53;;;;;;;34.20;24.73;;;15.30;99.90;;;;;;5072765;28;20425;-78
2021/06/08 04:31:21;;;;;;;28.37;25.07;;;15.30;99.90;;;;;;5072777;28;20537;-77
2021/06/08 04:33:47;;;;;;;28.57;24.67;;;15.30;99.90;;;;;;5071119;28;20434;-77
2021/06/08 04:36:13;;;;;;;32.27;25.77;;;15.40;99.90;;;;;;5072562;28;20410;-77
2021/06/08 04:38:40;;;;;;;38.70;29.80;;;15.50;99.90;;;;;;5072453;28;20407;-77
2021/06/08 04:41:06;;;;;;;36.03;27.80;;;15.50;99.90;;;;;;5071355;28;20390;-78
2021/06/08 04:43:33;;;;;;;37.13;30.17;;;15.50;99.90;;;;;;5072286;28;20427;-77
2021/06/08 04:46:07;;;;;;;32.70;28.30;;;15.50;99.90;;;;;;5071389;28;20427;-77
2021/06/08 04:48:33;;;;;;;35.67;27.20;;;15.50;99.90;;;;;;5072512;28;20767;-77
2021/06/08 04:51:00;;;;;;;34.27;27.63;;;15.60;99.90;;;;;;5074540;28;20501;-77
2021/06/08 04:53:26;;;;;;;38.70;27.80;;;15.60;99.90;;;;;;5075828;28;20430;-77
2021/06/08 04:55:53;;;;;;;34.90;28.57;;;15.50;99.90;;;;;;5075992;28;20407;-77
2021/06/08 04:58:20;;;;;;;33.10;27.83;;;15.50;99.90;;;;;;5076052;28;20407;-77
2021/06/08 05:00:48;;;;;;;32.53;28.60;;;15.60;99.90;;;;;;5076035;28;20407;-78
2021/06/08 05:03:17;;;;;;;32.80;28.37;;;15.60;99.90;;;;;;5074276;28;20955;-78
2021/06/08 05:05:48;;;;;;;32.20;28.50;;;15.70;99.90;;;;;;5075921;28;20740;-77
2021/06/08 05:08:18;;;;;;;44.03;30.20;;;15.80;99.90;;;;;;5075894;28;20414;-77
2021/06/08 05:10:59;;;;;;;33.50;29.93;;;15.80;99.90;;;;;;5075608;28;20408;-78
2021/06/08 05:13:27;;;;;;;38.17;28.90;;;15.90;99.90;;;;;;5074112;28;20426;-77
2021/06/08 05:15:54;;;;;;;34.93;30.00;;;16.00;99.90;;;;;;5075803;28;20868;-77
2021/06/08 05:18:20;;;;;;;37.00;29.10;;;16.00;99.90;;;;;;5075735;28;20411;-77
2021/06/08 05:20:47;;;;;;;38.37;31.47;;;16.00;99.90;;;;;;5075497;28;20415;-77
2021/06/08 05:23:16;;;;;;;36.60;31.57;;;16.10;99.90;;;;;;5075437;28;20418;-77
2021/06/08 05:25:43;;;;;;;36.20;32.13;;;16.00;99.90;;;;;;5075593;28;20919;-77
2021/06/08 05:28:10;;;;;;;38.87;32.40;;;16.00;99.90;;;;;;5075552;28;20814;-77
2021/06/08 05:30:37;;;;;;;41.60;32.60;;;16.00;99.90;;;;;;5075063;28;20453;-78
2021/06/08 05:33:03;;;;;;;43.67;33.13;;;16.10;99.90;;;;;;5073867;28;20506;-77
2021/06/08 05:35:30;;;;;;;41.57;30.83;;;16.00;99.90;;;;;;5075182;28;20518;-77
2021/06/08 05:38:06;;;;;;;43.70;33.20;;;16.00;99.90;;;;;;5075387;28;20453;-76
2021/06/08 05:40:32;;;;;;;47.50;35.00;;;16.10;99.90;;;;;;5075346;28;20410;-77
2021/06/08 05:42:58;;;;;;;41.57;33.60;;;16.10;99.90;;;;;;5075165;28;20415;-78
2021/06/08 05:45:24;;;;;;;43.00;32.90;;;16.20;99.90;;;;;;5075131;28;21180;-77
2021/06/08 05:47:50;;;;;;;42.17;35.57;;;16.30;99.90;;;;;;5075127;28;20411;-77
2021/06/08 05:50:16;;;;;;;43.37;34.13;;;16.40;99.90;;;;;;5074044;28;20855;-77
2021/06/08 05:52:43;;;;;;;39.47;32.77;;;16.50;99.90;;;;;;5073416;28;20227;-77
2021/06/08 05:55:11;;;;;;;40.60;33.73;;;16.40;99.90;;;;;;5074875;28;20719;-77
2021/06/08 05:57:37;;;;;;;44.43;34.50;;;16.40;99.90;;;;;;5074942;28;20504;-77
2021/06/08 06:00:05;;;;;;;41.20;32.50;;;16.50;99.90;;;;;;5075072;28;20439;-77
2021/06/08 06:02:34;;;;;;;41.53;33.93;;;16.70;99.90;;;;;;5054827;28;20909;-78
2021/06/08 06:05:00;;;;;;;34.17;30.27;;;16.90;99.90;;;;;;5054530;28;20444;-77
2021/06/08 06:07:27;;;;;;;37.70;31.43;;;17.00;99.90;;;;;;5054873;28;20406;-77
2021/06/08 06:09:53;;;;;;;34.47;27.87;;;17.10;99.90;;;;;;5054636;28;20423;-77
2021/06/08 06:12:19;;;;;;;34.27;28.17;;;17.20;99.90;;;;;;5054692;28;20471;-77
2021/06/08 06:14:49;;;;;;;38.37;28.10;;;17.40;99.90;;;;;;5071966;28;20436;-77
2021/06/08 06:17:16;;;;;;;34.10;27.40;;;17.40;99.90;;;;;;5074555;28;20411;-77
2021/06/08 06:19:43;;;;;;;33.03;26.17;;;17.40;99.90;;;;;;5074604;28;20419;-76
2021/06/08 06:22:09;;;;;;;34.50;28.70;;;17.40;99.90;;;;;;5074484;28;20411;-76
2021/06/08 06:24:37;;;;;;;32.37;27.37;;;17.50;99.90;;;;;;5073990;28;20455;-78
2021/06/08 06:27:03;;;;;;;34.57;29.50;;;17.40;99.90;;;;;;5072901;28;20993;-76
2021/06/08 06:29:29;;;;;;;34.57;29.53;;;17.40;99.90;;;;;;5074303;28;20799;-77
2021/06/08 06:31:56;;;;;;;34.03;28.77;;;17.60;99.90;;;;;;5073938;28;20474;-77
2021/06/08 06:34:24;;;;;;;33.97;28.17;;;17.70;99.90;;;;;;5073796;28;20189;-80
2021/06/08 06:36:50;;;;;;;37.33;29.43;;;17.80;99.90;;;;;;5063618;28;20427;-77
2021/06/08 06:39:25;;;;;;;37.37;28.27;;;17.90;99.90;;;;;;5052759;28;20958;-78
2021/06/08 06:41:54;;;;;;;34.67;29.30;;;18.10;99.90;;;;;;5054291;28;20386;-75
2021/06/08 06:44:22;;;;;;;33.00;27.73;;;18.20;99.90;;;;;;5053688;28;20776;-76
2021/06/08 06:46:49;;;;;;;33.23;26.60;;;18.20;99.90;;;;;;5053976;28;20512;-77
2021/06/08 06:49:15;;;;;;;31.00;27.70;;;18.40;99.90;;;;;;5053901;28;20412;-78
2021/06/08 06:51:45;;;;;;;30.70;27.40;;;18.50;99.90;;;;;;5053903;28;20543;-76
2021/06/08 06:54:12;;;;;;;32.07;28.00;;;18.30;99.90;;;;;;5053455;28;20200;-78
2021/06/08 06:56:38;;;;;;;35.63;27.97;;;18.40;99.90;;;;;;5063727;28;20408;-77
2021/06/08 06:59:06;;;;;;;30.10;26.20;;;18.50;99.90;;;;;;5072600;28;20810;-77
2021/06/08 07:01:32;;;;;;;32.63;24.67;;;18.70;99.90;;;;;;5072836;28;20421;-77
2021/06/08 07:04:00;;;;;;;29.90;25.00;;;18.70;99.90;;;;;;5073135;28;20942;-78
2021/06/08 07:06:27;;;;;;;29.23;24.63;;;18.80;99.90;;;;;;5072412;28;20514;-76
2021/06/08 07:08:55;;;;;;;28.23;22.40;;;18.90;99.90;;;;;;5073451;28;20413;-79
2021/06/08 07:11:22;;;;;;;30.63;24.63;;;19.20;99.90;;;;;;5075747;28;20447;-78
2021/06/08 07:13:49;;;;;;;36.53;26.07;;;19.50;99.90;;;;;;5072826;28;20439;-78
2021/06/08 07:16:16;;;;;;;26.50;23.27;;;19.60;99.90;;;;;;5073447;28;20923;-78
2021/06/08 07:18:45;;;;;;;25.80;23.00;;;19.70;99.90;;;;;;5073537;28;20385;-78
2021/06/08 07:21:12;;;;;;;32.63;24.90;;;19.80;99.90;;;;;;5073437;28;20411;-78
2021/06/08 07:23:38;;;;;;;26.10;23.40;;;20.20;99.90;;;;;;5073013;28;20804;-78
2021/06/08 07:26:04;;;;;;;24.83;22.23;;;20.20;99.90;;;;;;5073309;28;20401;-78
2021/06/08 07:28:31;;;;;;;24.53;20.70;;;20.10;99.90;;;;;;5072249;28;20556;-78
2021/06/08 07:30:59;;;;;;;29.77;19.40;;;20.00;99.90;;;;;;5073221;28;20830;-78
2021/06/08 07:33:53;;;;;;;18.23;16.33;;;19.70;99.90;;;;;;5049744;28;20442;-78
2021/06/08 07:36:26;;;;;;;21.63;19.43;;;19.80;99.90;;;;;;5072077;28;20915;-78
2021/06/08 07:39:02;;;;;;;23.50;21.10;;;20.10;99.90;;;;;;5073464;28;20731;-78
2021/06/08 07:41:52;;;;;;;23.40;20.93;;;20.30;99.90;;;;;;5072839;28;20439;-78
2021/06/08 07:44:28;;;;;;;24.27;21.60;;;20.40;99.90;;;;;;5071543;28;20444;-78
2021/06/08 07:46:57;;;;;;;28.30;23.97;;;20.40;99.90;;;;;;5072739;28;20444;-79
2021/06/08 07:49:25;;;;;;;26.83;22.87;;;20.40;99.90;;;;;;5078260;28;20403;-78
2021/06/08 07:51:52;;;;;;;27.60;23.03;;;20.30;99.90;;;;;;5073187;28;20463;-78
2021/06/08 07:54:20;;;;;;;25.87;22.83;;;20.10;99.90;;;;;;5072819;28;20409;-78
2021/06/08 07:56:46;;;;;;;29.03;22.60;;;20.10;99.90;;;;;;5073070;28;20745;-78
2021/06/08 07:59:13;;;;;;;27.57;22.20;;;20.00;99.90;;;;;;5055625;28;20407;-77
2021/06/08 08:01:43;;;;;;;26.03;21.87;;;19.90;99.90;;;;;;5071800;28;20261;-77
2021/06/08 08:04:11;;;;;;;27.50;23.27;;;19.80;99.90;;;;;;5074104;28;20426;-78
2021/06/08 08:06:37;;;;;;;34.87;24.90;;;19.90;99.90;;;;;;5073130;28;20771;-78
2021/06/08 08:09:17;;;;;;;27.70;24.80;;;19.80;99.90;;;;;;5055119;28;20711;-78
2021/06/08 08:11:45;;;;;;;26.43;23.80;;;19.90;99.90;;;;;;5073863;28;20441;-78
2021/06/08 08:14:14;;;;;;;28.47;23.77;;;19.90;99.90;;;;;;5071279;28;21004;-78
2021/06/08 08:16:45;;;;;;;29.00;23.50;;;19.90;99.90;;;;;;5072849;28;20415;-78
2021/06/08 08:19:11;;;;;;;26.30;23.50;;;20.20;99.90;;;;;;5072938;28;20453;-78
2021/06/08 08:21:37;;;;;;;31.77;23.90;;;20.30;99.90;;;;;;5072835;28;20393;-78
2021/06/08 08:24:03;;;;;;;27.87;22.70;;;20.40;99.90;;;;;;5072982;28;20452;-77
2021/06/08 08:26:28;;;;;;;27.20;23.07;;;20.60;99.90;;;;;;5076660;28;20173;-77
2021/06/08 08:28:58;;;;;;;24.67;22.13;;;20.60;99.90;;;;;;5076423;28;20419;-77
2021/06/08 08:31:27;;;;;;;24.60;22.00;;;20.50;99.90;;;;;;5076585;28;20250;-78
2021/06/08 08:33:53;;;;;;;22.43;20.03;;;20.70;99.90;;;;;;5075894;28;20423;-78
2021/06/08 08:36:19;;;;;;;26.30;22.57;;;21.10;99.90;;;;;;5076525;28;20385;-78
2021/06/08 08:38:44;;;;;;;23.20;20.80;;;21.40;99.90;;;;;;5076417;28;20845;-78
2021/06/08 08:41:10;;;;;;;26.07;22.70;;;21.70;99.90;;;;;;5076328;28;20172;-78
2021/06/08 08:43:41;;;;;;;27.47;23.30;;;22.00;99.90;;;;;;5075931;28;20193;-79
2021/06/08 08:46:07;;;;;;;27.87;24.97;;;22.40;99.90;;;;;;5076276;28;20506;-78
2021/06/08 08:48:33;;;;;;;26.63;21.80;;;22.50;99.90;;;;;;5075049;28;20912;-77
2021/06/08 08:50:59;;;;;;;23.37;21.10;;;22.40;99.90;;;;;;5076119;28;20466;-77
2021/06/08 08:53:26;;;;;;;25.00;22.50;;;22.20;99.90;;;;;;5075872;28;21057;-79
2021/06/08 08:55:52;;;;;;;24.93;22.43;;;22.10;99.90;;;;;;5075748;28;20181;-77
2021/06/08 08:58:18;;;;;;;23.03;20.73;;;22.00;99.90;;;;;;5075845;28;20411;-79
2021/06/08 09:00:45;;;;;;;23.80;21.30;;;22.00;99.90;;;;;;5074413;28;20188;-78
2021/06/08 09:03:13;;;;;;;23.13;20.83;;;21.80;99.90;;;;;;5075445;28;20423;-77
2021/06/08 09:05:59;;;;;;;23.47;21.27;;;21.60;99.90;;;;;;5075920;28;20490;-78
2021/06/08 09:08:26;;;;;;;23.63;21.30;;;21.30;99.90;;;;;;5076173;28;20411;-78
2021/06/08 09:10:54;;;;;;;23.70;21.17;;;21.20;99.90;;;;;;5075775;28;20415;-77
2021/06/08 09:13:21;;;;;;;26.03;23.10;;;21.20;99.90;;;;;;5075473;28;20388;-78
2021/06/08 09:15:47;;;;;;;26.20;21.53;;;20.80;99.90;;;;;;5075743;28;20933;-78
2021/06/08 09:18:13;;;;;;;24.90;22.40;;;20.80;99.90;;;;;;5075636;28;20407;-77
2021/06/08 09:20:39;;;;;;;21.40;19.00;;;21.20;99.90;;;;;;5075687;28;20230;-78
2021/06/08 09:23:09;;;;;;;21.40;19.20;;;21.20;99.90;;;;;;5075307;28;20403;-77
2021/06/08 09:25:35;;;;;;;18.97;17.07;;;21.90;99.90;;;;;;5075715;28;20165;-78
2021/06/08 09:28:20;;;;;;;21.97;19.63;;;21.90;99.90;;;;;;5075651;28;20749;-80
2021/06/08 09:30:47;;;;;;;23.50;21.10;;;21.90;99.90;;;;;;5075194;28;20819;-78
2021/06/08 09:33:26;;;;;;;22.87;20.67;;;22.00;99.90;;;;;;5075017;28;20893;-78
2021/06/08 09:36:01;;;;;;;22.10;19.80;;;21.80;99.90;;;;;;5074774;28;20880;-78
2021/06/08 09:38:35;;;;;;;21.93;18.33;;;21.70;99.90;;;;;;5075278;28;20395;-77
2021/06/08 09:41:27;;;;;;;20.37;18.20;;;21.90;99.90;;;;;;5075256;28;20431;-77
2021/06/08 09:44:02;;;;;;;21.83;19.20;;;21.80;99.90;;;;;;5070655;28;21032;-77
2021/06/08 09:46:47;;;;;;;22.13;19.93;;;22.10;99.90;;;;;;5073758;28;20414;-78
2021/06/08 09:49:15;;;;;;;22.63;20.37;;;22.10;99.90;;;;;;5075228;28;20898;-77
2021/06/08 09:52:04;;;;;;;20.90;18.80;;;22.30;99.90;;;;;;5075012;28;20512;-77
2021/06/08 09:54:38;;;;;;;20.77;18.60;;;22.60;99.90;;;;;;5074757;28;20521;-77
2021/06/08 09:57:14;;;;;;;21.60;19.50;;;22.50;99.90;;;;;;5074910;28;20908;-77
2021/06/08 10:00:07;;;;;;;18.63;16.57;;;22.60;99.90;;;;;;5074993;28;20392;-78
2021/06/08 10:02:48;;;;;;;16.60;14.97;;;22.90;99.90;;;;;;5073009;28;20431;-77
2021/06/08 10:05:21;;;;;;;17.20;15.00;;;23.20;99.90;;;;;;5074877;28;20431;-77
2021/06/08 10:08:05;;;;;;;10.63;9.73;;;24.00;99.90;;;;;;5074800;28;20403;-77
2021/06/08 10:10:42;;;;;;;9.37;8.57;;;24.10;99.90;;;;;;5074709;28;20395;-77
2021/06/08 10:13:16;;;;;;;11.10;9.70;;;24.10;99.90;;;;;;5074621;28;20415;-76
2021/06/08 10:16:03;;;;;;;11.00;9.90;;;24.20;99.90;;;;;;5073754;28;20775;-76
2021/06/08 10:18:46;;;;;;;9.00;8.20;;;24.20;99.90;;;;;;5074585;28;20388;-77
2021/06/08 10:21:12;;;;;;;14.47;13.07;;;24.70;99.90;;;;;;5074749;28;20407;-77
2021/06/08 10:23:38;;;;;;;12.27;11.17;;;25.30;99.90;;;;;;5072871;28;20577;-77
2021/06/08 10:26:10;;;;;;;14.43;11.30;;;25.90;99.90;;;;;;5074494;28;20467;-77
2021/06/08 10:28:36;;;;;;;13.50;12.10;;;26.50;99.90;;;;;;5074331;28;20887;-77
2021/06/08 10:31:03;;;;;;;12.97;11.67;;;25.70;99.90;;;;;;5074117;28;20473;-77
2021/06/08 10:33:29;;;;;;;11.80;10.57;;;25.10;99.90;;;;;;5074200;28;20431;-76
2021/06/08 10:35:55;;;;;;;9.17;8.20;;;24.70;99.90;;;;;;5074192;28;20433;-76
2021/06/08 10:38:22;;;;;;;13.80;9.67;;;24.50;99.90;;;;;;5074226;28;20418;-77
2021/06/08 10:40:53;;;;;;;12.43;11.43;;;24.60;99.90;;;;;;5072734;28;20916;-77
2021/06/08 10:43:27;;;;;;;8.20;7.50;;;24.30;99.90;;;;;;5073678;28;20417;-77
2021/06/08 10:45:57;;;;;;;7.73;7.03;;;24.70;99.90;;;;;;5074018;28;20852;-77
2021/06/08 10:48:36;;;;;;;8.40;7.60;;;24.90;99.90;;;;;;5073020;28;20415;-76
2021/06/08 10:51:20;;;;;;;10.57;9.60;;;25.00;99.90;;;;;;5073723;28;20611;-78
2021/06/08 10:53:52;;;;;;;11.67;10.63;;;25.60;99.90;;;;;;5073758;28;20782;-77
2021/06/08 10:56:31;;;;;;;13.03;11.93;;;25.10;99.90;;;;;;5073753;28;20399;-77
2021/06/08 10:59:02;;;;;;;14.10;12.23;;;24.70;99.90;;;;;;5073687;28;20501;-77
2021/06/08 11:01:41;;;;;;;12.93;11.63;;;25.40;99.90;;;;;;5072818;28;20420;-77
2021/06/08 11:04:12;;;;;;;14.57;13.27;;;25.70;99.90;;;;;;5073465;28;20430;-77
2021/06/08 11:06:38;;;;;;;13.63;12.57;;;26.20;99.90;;;;;;5073614;28;20441;-77
2021/06/08 11:09:13;;;;;;;12.30;11.30;;;26.70;99.90;;;;;;5073662;28;20418;-77
2021/06/08 11:11:41;;;;;;;14.37;12.87;;;27.50;99.90;;;;;;5073632;28;20199;-77
2021/06/08 11:14:07;;;;;;;14.07;12.93;;;27.50;99.90;;;;;;5073118;28;20522;-77
2021/06/08 11:16:34;;;;;;;15.47;13.90;;;27.30;99.90;;;;;;5073572;28;20490;-77
2021/06/08 11:19:01;;;;;;;13.13;12.13;;;27.40;99.90;;;;;;5073629;28;20230;-77
2021/06/08 11:21:29;;;;;;;14.07;12.77;;;26.60;99.90;;;;;;5073357;28;20415;-76
2021/06/08 11:23:55;;;;;;;12.93;11.93;;;26.50;99.90;;;;;;5072900;28;20434;-77
2021/06/08 11:26:49;;;;;;;11.80;10.90;;;26.70;99.90;;;;;;5073018;28;20783;-77
2021/06/08 11:30:00;;;;;;;12.20;11.10;;;26.60;99.90;;;;;;5072900;28;20431;-77
2021/06/08 11:32:30;;;;;;;13.73;12.30;;;27.20;99.90;;;;;;5069695;28;20486;-76
2021/06/08 11:35:18;;;;;;;12.50;11.50;;;27.50;99.90;;;;;;5072799;28;20837;-75
2021/06/08 11:38:27;;;;;;;10.63;9.73;;;27.20;99.90;;;;;;5073290;28;20399;-75
2021/06/08 11:40:56;;;;;;;13.23;11.60;;;27.00;99.90;;;;;;5071482;28;20426;-75
2021/06/08 11:43:21;;;;;;;13.70;12.33;;;26.90;99.90;;;;;;5072525;28;20441;-76
2021/06/08 11:46:00;;;;;;;11.43;10.53;;;26.90;99.90;;;;;;5073113;28;20402;-75
2021/06/08 11:48:36;;;;;;;13.30;12.20;;;26.90;99.90;;;;;;5073243;28;20251;-76
2021/06/08 11:51:19;;;;;;;13.27;12.07;;;26.70;99.90;;;;;;5073190;28;20504;-76
2021/06/08 11:54:10;;;;;;;11.83;10.60;;;27.10;99.90;;;;;;5073119;28;20496;-75
2021/06/08 11:56:57;;;;;;;13.30;12.10;;;27.50;99.90;;;;;;5073094;28;20403;-74
2021/06/08 11:59:28;;;;;;;13.33;12.20;;;27.70;99.90;;;;;;5074475;28;20449;-75
2021/06/08 12:02:07;;;;;;;12.30;11.30;;;27.50;99.90;;;;;;5077644;28;20488;-75
2021/06/08 12:05:07;;;;;;;10.37;9.37;;;27.30;99.90;;;;;;5076746;28;20796;-76
2021/06/08 12:07:51;;;;;;;10.63;9.67;;;27.00;99.90;;;;;;5077119;28;20406;-76
2021/06/08 12:10:28;;;;;;;10.27;9.40;;;25.90;99.90;;;;;;5076908;28;20929;-75
2021/06/08 12:12:54;;;;;;;11.17;10.17;;;26.60;99.90;;;;;;5076721;28;20508;-76
2021/06/08 12:15:23;;;;;;;15.00;12.97;;;26.70;99.90;;;;;;5076830;28;20442;-76
2021/06/08 12:18:03;;;;;;;11.57;10.60;;;26.40;99.90;;;;;;5077038;28;20446;-76
2021/06/08 12:20:28;;;;;;;13.13;11.83;;;26.50;99.90;;;;;;5077112;28;20427;-76
2021/06/08 12:22:54;;;;;;;12.33;11.03;;;26.60;99.90;;;;;;5075287;28;20442;-76
2021/06/08 12:25:20;;;;;;;11.20;10.30;;;26.90;99.90;;;;;;5076691;28;20437;-76
2021/06/08 12:27:47;;;;;;;13.30;12.10;;;27.10;99.90;;;;;;5076469;28;20506;-76
2021/06/08 12:30:13;;;;;;;10.83;9.90;;;27.00;99.90;;;;;;5076458;28;20208;-76
2021/06/08 12:32:40;;;;;;;14.23;12.87;;;26.70;99.90;;;;;;5076511;28;20454;-75
2021/06/08 12:35:34;;;;;;;14.10;12.90;;;26.60;99.90;;;;;;5076203;28;20432;-76
2021/06/08 12:38:15;;;;;;;15.60;14.27;;;26.30;99.90;;;;;;5076615;28;20471;-75
2021/06/08 12:41:02;;;;;;;13.57;12.37;;;26.20;99.90;;;;;;5076423;28;20410;-75
2021/06/08 12:43:39;;;;;;;11.70;10.60;;;26.00;99.90;;;;;;5068595;28;20478;-75